sensor_id;sensor_type;location;lat;lon;timestamp;temperature;humidity
60293;DHT22;52402;52.670;6.750;2023-04-06T00:01:35;1.80;99.90
60293;DHT22;52402;52.670;6.750;2023-04-06T00:04:00;1.80;99.90
60293;DHT22;52402;52.670;6.750;2023-04-06T00:06:26;1.80;99.90
60293;DHT22;52402;52.670;6.750;2023-04-06T00:08:53;1.80;99.90
60293;DHT22;52402;52.670;6.750;2023-04-06T00:11:19;1.80;99.90
60293;DHT22;52402;52.670;6.750;2023-04-06T00:13:45;1.80;99.90
60293;DHT22;52402;52.670;6.750;2023-04-06T00:16:11;1.80;99.90
60293;DHT22;52402;52.670;6.750;2023-04-06T00:18:36;1.70;99.90
60293;DHT22;52402;52.670;6.750;2023-04-06T00:21:03;1.70;99.90
60293;DHT22;52402;52.670;6.750;2023-04-06T00:23:28;1.60;99.90
60293;DHT22;52402;52.670;6.750;2023-04-06T00:25:54;1.60;99.90
60293;DHT22;52402;52.670;6.750;2023-04-06T00:28:20;1.60;99.90
60293;DHT22;52402;52.670;6.750;2023-04-06T00:30:51;1.60;99.90
60293;DHT22;52402;52.670;6.750;2023-04-06T00:33:21;1.60;99.90
60293;DHT22;52402;52.670;6.750;2023-04-06T00:35:47;1.60;99.90
60293;DHT22;52402;52.670;6.750;2023-04-06T00:38:14;1.50;99.90
60293;DHT22;52402;52.670;6.750;2023-04-06T00:40:40;1.50;99.90
60293;DHT22;52402;52.670;6.750;2023-04-06T00:43:06;1.50;99.90
60293;DHT22;52402;52.670;6.750;2023-04-06T00:45:34;1.40;99.90
60293;DHT22;52402;52.670;6.750;2023-04-06T00:48:00;1.40;99.90
60293;DHT22;52402;52.670;6.750;2023-04-06T00:50:27;1.40;99.90
60293;DHT22;52402;52.670;6.750;2023-04-06T00:52:53;1.40;99.90
60293;DHT22;52402;52.670;6.750;2023-04-06T00:55:20;1.40;99.90
60293;DHT22;52402;52.670;6.750;2023-04-06T00:57:45;1.40;99.90
60293;DHT22;52402;52.670;6.750;2023-04-06T01:00:11;1.30;99.90
60293;DHT22;52402;52.670;6.750;2023-04-06T01:02:38;1.30;99.90
60293;DHT22;52402;52.670;6.750;2023-04-06T01:05:04;1.20;99.90
60293;DHT22;52402;52.670;6.750;2023-04-06T01:07:30;1.20;99.90
60293;DHT22;52402;52.670;6.750;2023-04-06T01:09:56;1.20;99.90
60293;DHT22;52402;52.670;6.750;2023-04-06T01:12:21;1.20;99.90
60293;DHT22;52402;52.670;6.750;2023-04-06T01:14:47;1.20;99.90
60293;DHT22;52402;52.670;6.750;2023-04-06T01:17:13;1.20;99.90
60293;DHT22;52402;52.670;6.750;2023-04-06T01:19:39;1.20;99.90
60293;DHT22;52402;52.670;6.750;2023-04-06T01:22:06;1.20;99.90
60293;DHT22;52402;52.670;6.750;2023-04-06T01:24:32;1.10;99.90
60293;DHT22;52402;52.670;6.750;2023-04-06T01:26:57;1.10;99.90
60293;DHT22;52402;52.670;6.750;2023-04-06T01:29:23;1.10;99.90
60293;DHT22;52402;52.670;6.750;2023-04-06T01:31:48;1.10;99.90
60293;DHT22;52402;52.670;6.750;2023-04-06T01:34:14;1.10;99.90
60293;DHT22;52402;52.670;6.750;2023-04-06T01:36:40;1.10;99.90
60293;DHT22;52402;52.670;6.750;2023-04-06T01:39:06;1.00;99.90
60293;DHT22;52402;52.670;6.750;2023-04-06T01:41:31;1.00;99.90
60293;DHT22;52402;52.670;6.750;2023-04-06T01:43:57;1.00;99.90
60293;DHT22;52402;52.670;6.750;2023-04-06T01:46:22;0.90;99.90
60293;DHT22;52402;52.670;6.750;2023-04-06T01:48:48;0.90;99.90
60293;DHT22;52402;52.670;6.750;2023-04-06T01:51:14;0.90;99.90
60293;DHT22;52402;52.670;6.750;2023-04-06T01:53:39;0.80;99.90
60293;DHT22;52402;52.670;6.750;2023-04-06T01:56:05;0.70;99.90
60293;DHT22;52402;52.670;6.750;2023-04-06T01:58:31;0.70;99.90
60293;DHT22;52402;52.670;6.750;2023-04-06T02:00:56;0.70;99.90
60293;DHT22;52402;52.670;6.750;2023-04-06T02:03:22;0.70;99.90
60293;DHT22;52402;52.670;6.750;2023-04-06T02:05:48;0.70;99.90
60293;DHT22;52402;52.670;6.750;2023-04-06T02:08:13;0.80;99.90
60293;DHT22;52402;52.670;6.750;2023-04-06T02:10:39;0.80;99.90
60293;DHT22;52402;52.670;6.750;2023-04-06T02:13:04;0.80;99.90
60293;DHT22;52402;52.670;6.750;2023-04-06T02:15:30;0.80;99.90
60293;DHT22;52402;52.670;6.750;2023-04-06T02:17:56;0.80;99.90
60293;DHT22;52402;52.670;6.750;2023-04-06T02:20:22;0.70;99.90
60293;DHT22;52402;52.670;6.750;2023-04-06T02:22:48;0.70;99.90
60293;DHT22;52402;52.670;6.750;2023-04-06T02:25:13;0.70;99.90
60293;DHT22;52402;52.670;6.750;2023-04-06T02:27:39;0.70;99.90
60293;DHT22;52402;52.670;6.750;2023-04-06T02:30:05;0.60;99.90
60293;DHT22;52402;52.670;6.750;2023-04-06T02:32:31;0.60;99.90
60293;DHT22;52402;52.670;6.750;2023-04-06T02:34:58;0.50;99.90
60293;DHT22;52402;52.670;6.750;2023-04-06T02:37:23;0.50;99.90
60293;DHT22;52402;52.670;6.750;2023-04-06T02:39:49;0.50;99.90
60293;DHT22;52402;52.670;6.750;2023-04-06T02:42:15;0.50;99.90
60293;DHT22;52402;52.670;6.750;2023-04-06T02:44:41;0.40;99.90
60293;DHT22;52402;52.670;6.750;2023-04-06T02:47:07;0.40;99.90
60293;DHT22;52402;52.670;6.750;2023-04-06T02:49:33;0.40;99.90
60293;DHT22;52402;52.670;6.750;2023-04-06T02:51:59;0.40;99.90
60293;DHT22;52402;52.670;6.750;2023-04-06T02:54:24;0.30;99.90
60293;DHT22;52402;52.670;6.750;2023-04-06T02:56:50;0.40;99.90
60293;DHT22;52402;52.670;6.750;2023-04-06T02:59:16;0.40;99.90
60293;DHT22;52402;52.670;6.750;2023-04-06T03:01:41;0.40;99.90
60293;DHT22;52402;52.670;6.750;2023-04-06T03:04:07;0.40;99.90
60293;DHT22;52402;52.670;6.750;2023-04-06T03:06:32;0.40;99.90
60293;DHT22;52402;52.670;6.750;2023-04-06T03:08:58;0.30;99.90
60293;DHT22;52402;52.670;6.750;2023-04-06T03:11:24;0.30;99.90
60293;DHT22;52402;52.670;6.750;2023-04-06T03:13:50;0.30;99.90
60293;DHT22;52402;52.670;6.750;2023-04-06T03:16:16;0.20;99.90
60293;DHT22;52402;52.670;6.750;2023-04-06T03:18:42;0.20;99.90
60293;DHT22;52402;52.670;6.750;2023-04-06T03:21:10;0.20;99.90
60293;DHT22;52402;52.670;6.750;2023-04-06T03:23:35;0.20;99.90
60293;DHT22;52402;52.670;6.750;2023-04-06T03:26:02;0.20;99.90
60293;DHT22;52402;52.670;6.750;2023-04-06T03:28:27;0.20;99.90
60293;DHT22;52402;52.670;6.750;2023-04-06T03:30:55;0.20;99.90
60293;DHT22;52402;52.670;6.750;2023-04-06T03:33:22;0.20;99.90
60293;DHT22;52402;52.670;6.750;2023-04-06T03:35:47;0.20;99.90
60293;DHT22;52402;52.670;6.750;2023-04-06T03:38:13;0.20;99.90
60293;DHT22;52402;52.670;6.750;2023-04-06T03:40:39;0.20;99.90
60293;DHT22;52402;52.670;6.750;2023-04-06T03:43:04;0.20;99.90
60293;DHT22;52402;52.670;6.750;2023-04-06T03:45:30;0.20;99.90
60293;DHT22;52402;52.670;6.750;2023-04-06T03:47:55;0.10;99.90
60293;DHT22;52402;52.670;6.750;2023-04-06T03:50:21;0.10;99.90
60293;DHT22;52402;52.670;6.750;2023-04-06T03:52:47;0.20;99.90
60293;DHT22;52402;52.670;6.750;2023-04-06T03:55:12;0.20;99.90
60293;DHT22;52402;52.670;6.750;2023-04-06T03:57:38;0.20;99.90
60293;DHT22;52402;52.670;6.750;2023-04-06T04:00:04;0.10;99.90
60293;DHT22;52402;52.670;6.750;2023-04-06T04:02:29;0.20;99.90
60293;DHT22;52402;52.670;6.750;2023-04-06T04:04:55;0.20;99.90
60293;DHT22;52402;52.670;6.750;2023-04-06T04:07:21;0.10;99.90
60293;DHT22;52402;52.670;6.750;2023-04-06T04:09:46;0.10;99.90
60293;DHT22;52402;52.670;6.750;2023-04-06T04:12:12;0.10;99.90
60293;DHT22;52402;52.670;6.750;2023-04-06T04:14:39;0.10;99.90
60293;DHT22;52402;52.670;6.750;2023-04-06T04:17:05;0.10;99.90
60293;DHT22;52402;52.670;6.750;2023-04-06T04:19:31;0.10;99.90
60293;DHT22;52402;52.670;6.750;2023-04-06T04:21:56;0.10;99.90
60293;DHT22;52402;52.670;6.750;2023-04-06T04:24:22;0.10;99.90
60293;DHT22;52402;52.670;6.750;2023-04-06T04:26:47;0.00;99.90
60293;DHT22;52402;52.670;6.750;2023-04-06T04:29:13;0.00;99.90
60293;DHT22;52402;52.670;6.750;2023-04-06T04:31:38;0.00;99.90
60293;DHT22;52402;52.670;6.750;2023-04-06T04:34:04;0.00;99.90
60293;DHT22;52402;52.670;6.750;2023-04-06T04:36:32;0.00;99.90
60293;DHT22;52402;52.670;6.750;2023-04-06T04:38:57;0.00;99.90
60293;DHT22;52402;52.670;6.750;2023-04-06T04:41:23;0.00;99.90
60293;DHT22;52402;52.670;6.750;2023-04-06T04:43:49;0.00;99.90
60293;DHT22;52402;52.670;6.750;2023-04-06T04:46:14;0.00;99.90
60293;DHT22;52402;52.670;6.750;2023-04-06T04:48:40;0.00;99.90
60293;DHT22;52402;52.670;6.750;2023-04-06T04:51:05;-0.10;99.90
60293;DHT22;52402;52.670;6.750;2023-04-06T04:53:31;-0.10;99.90
60293;DHT22;52402;52.670;6.750;2023-04-06T04:55:57;-0.10;99.90
60293;DHT22;52402;52.670;6.750;2023-04-06T04:58:22;-0.10;99.90
60293;DHT22;52402;52.670;6.750;2023-04-06T05:00:48;-0.20;99.90
60293;DHT22;52402;52.670;6.750;2023-04-06T05:03:19;-0.20;99.90
60293;DHT22;52402;52.670;6.750;2023-04-06T05:05:45;-0.10;99.90
60293;DHT22;52402;52.670;6.750;2023-04-06T05:08:11;-0.20;99.90
60293;DHT22;52402;52.670;6.750;2023-04-06T05:10:37;-0.20;99.90
60293;DHT22;52402;52.670;6.750;2023-04-06T05:13:03;-0.10;99.90
60293;DHT22;52402;52.670;6.750;2023-04-06T05:15:28;-0.10;99.90
60293;DHT22;52402;52.670;6.750;2023-04-06T05:17:54;-0.10;99.90
60293;DHT22;52402;52.670;6.750;2023-04-06T05:20:19;-0.10;99.90
60293;DHT22;52402;52.670;6.750;2023-04-06T05:22:45;-0.10;99.90
60293;DHT22;52402;52.670;6.750;2023-04-06T05:25:11;-0.10;99.90
60293;DHT22;52402;52.670;6.750;2023-04-06T05:27:36;-0.10;99.90
60293;DHT22;52402;52.670;6.750;2023-04-06T05:30:02;-0.10;99.90
60293;DHT22;52402;52.670;6.750;2023-04-06T05:32:28;0.00;99.90
60293;DHT22;52402;52.670;6.750;2023-04-06T05:34:54;0.00;99.90
60293;DHT22;52402;52.670;6.750;2023-04-06T05:37:20;0.00;99.90
60293;DHT22;52402;52.670;6.750;2023-04-06T05:39:45;0.10;99.90
60293;DHT22;52402;52.670;6.750;2023-04-06T05:42:11;0.10;99.90
60293;DHT22;52402;52.670;6.750;2023-04-06T05:44:37;0.10;99.90
60293;DHT22;52402;52.670;6.750;2023-04-06T05:47:03;0.10;99.90
60293;DHT22;52402;52.670;6.750;2023-04-06T05:49:29;0.20;99.90
60293;DHT22;52402;52.670;6.750;2023-04-06T05:51:55;0.20;99.90
60293;DHT22;52402;52.670;6.750;2023-04-06T05:54:20;0.30;99.90
60293;DHT22;52402;52.670;6.750;2023-04-06T05:56:46;0.30;99.90
60293;DHT22;52402;52.670;6.750;2023-04-06T05:59:12;0.30;99.90
60293;DHT22;52402;52.670;6.750;2023-04-06T06:01:38;0.40;99.90
60293;DHT22;52402;52.670;6.750;2023-04-06T06:04:03;0.50;99.90
60293;DHT22;52402;52.670;6.750;2023-04-06T06:06:29;0.50;99.90
60293;DHT22;52402;52.670;6.750;2023-04-06T06:08:58;0.60;99.90
60293;DHT22;52402;52.670;6.750;2023-04-06T06:11:27;0.70;99.90
60293;DHT22;52402;52.670;6.750;2023-04-06T06:13:52;0.80;99.90
60293;DHT22;52402;52.670;6.750;2023-04-06T06:16:19;0.90;99.90
60293;DHT22;52402;52.670;6.750;2023-04-06T06:18:45;1.00;99.90
60293;DHT22;52402;52.670;6.750;2023-04-06T06:21:10;1.10;99.90
60293;DHT22;52402;52.670;6.750;2023-04-06T06:23:42;1.20;99.90
60293;DHT22;52402;52.670;6.750;2023-04-06T06:26:08;1.30;99.90
60293;DHT22;52402;52.670;6.750;2023-04-06T06:28:34;1.40;99.90
60293;DHT22;52402;52.670;6.750;2023-04-06T06:30:59;1.40;99.90
60293;DHT22;52402;52.670;6.750;2023-04-06T06:33:26;1.50;99.90
60293;DHT22;52402;52.670;6.750;2023-04-06T06:35:52;1.60;99.90
60293;DHT22;52402;52.670;6.750;2023-04-06T06:38:17;1.60;99.90
60293;DHT22;52402;52.670;6.750;2023-04-06T06:40:44;1.70;99.90
60293;DHT22;52402;52.670;6.750;2023-04-06T06:43:10;1.80;99.90
60293;DHT22;52402;52.670;6.750;2023-04-06T06:45:35;1.90;99.90
60293;DHT22;52402;52.670;6.750;2023-04-06T06:48:01;2.00;99.90
60293;DHT22;52402;52.670;6.750;2023-04-06T06:50:27;2.10;99.90
60293;DHT22;52402;52.670;6.750;2023-04-06T06:52:52;2.20;99.90
60293;DHT22;52402;52.670;6.750;2023-04-06T06:55:18;2.30;99.90
60293;DHT22;52402;52.670;6.750;2023-04-06T06:57:44;2.40;99.90
60293;DHT22;52402;52.670;6.750;2023-04-06T07:00:12;2.50;99.90
60293;DHT22;52402;52.670;6.750;2023-04-06T07:02:39;2.60;99.90
60293;DHT22;52402;52.670;6.750;2023-04-06T07:05:05;2.70;99.90
60293;DHT22;52402;52.670;6.750;2023-04-06T07:07:34;2.80;99.90
60293;DHT22;52402;52.670;6.750;2023-04-06T07:10:00;2.90;99.90
60293;DHT22;52402;52.670;6.750;2023-04-06T07:12:26;3.00;99.90
60293;DHT22;52402;52.670;6.750;2023-04-06T07:14:54;3.10;99.90
60293;DHT22;52402;52.670;6.750;2023-04-06T07:17:20;3.30;99.90
60293;DHT22;52402;52.670;6.750;2023-04-06T07:19:45;3.30;99.90
60293;DHT22;52402;52.670;6.750;2023-04-06T07:22:11;3.50;99.90
60293;DHT22;52402;52.670;6.750;2023-04-06T07:24:37;3.60;99.90
60293;DHT22;52402;52.670;6.750;2023-04-06T07:27:02;3.80;99.90
60293;DHT22;52402;52.670;6.750;2023-04-06T07:29:28;3.90;99.90
60293;DHT22;52402;52.670;6.750;2023-04-06T07:31:54;4.10;99.90
60293;DHT22;52402;52.670;6.750;2023-04-06T07:34:21;4.20;99.90
60293;DHT22;52402;52.670;6.750;2023-04-06T07:36:46;4.30;99.90
60293;DHT22;52402;52.670;6.750;2023-04-06T07:39:12;4.50;99.90
60293;DHT22;52402;52.670;6.750;2023-04-06T07:41:37;4.60;99.90
60293;DHT22;52402;52.670;6.750;2023-04-06T07:44:04;4.80;99.90
60293;DHT22;52402;52.670;6.750;2023-04-06T07:46:30;5.00;99.90
60293;DHT22;52402;52.670;6.750;2023-04-06T07:48:57;5.10;99.90
60293;DHT22;52402;52.670;6.750;2023-04-06T07:51:23;5.30;99.90
60293;DHT22;52402;52.670;6.750;2023-04-06T07:53:50;5.40;99.90
60293;DHT22;52402;52.670;6.750;2023-04-06T07:56:15;5.50;99.90
60293;DHT22;52402;52.670;6.750;2023-04-06T07:58:41;5.70;99.90
60293;DHT22;52402;52.670;6.750;2023-04-06T08:01:07;5.80;99.90
60293;DHT22;52402;52.670;6.750;2023-04-06T08:03:36;6.00;99.90
60293;DHT22;52402;52.670;6.750;2023-04-06T08:06:02;6.10;99.90
60293;DHT22;52402;52.670;6.750;2023-04-06T08:08:28;6.30;99.90
60293;DHT22;52402;52.670;6.750;2023-04-06T08:10:54;6.40;99.90
60293;DHT22;52402;52.670;6.750;2023-04-06T08:13:20;6.60;99.90
60293;DHT22;52402;52.670;6.750;2023-04-06T08:15:46;6.70;99.90
60293;DHT22;52402;52.670;6.750;2023-04-06T08:18:12;6.80;99.90
60293;DHT22;52402;52.670;6.750;2023-04-06T08:20:39;7.00;99.90
60293;DHT22;52402;52.670;6.750;2023-04-06T08:23:04;7.10;99.90
60293;DHT22;52402;52.670;6.750;2023-04-06T08:25:30;7.20;99.90
60293;DHT22;52402;52.670;6.750;2023-04-06T08:27:55;7.40;99.90
60293;DHT22;52402;52.670;6.750;2023-04-06T08:30:21;7.50;99.90
60293;DHT22;52402;52.670;6.750;2023-04-06T08:32:47;7.70;99.90
60293;DHT22;52402;52.670;6.750;2023-04-06T08:35:12;7.80;99.90
60293;DHT22;52402;52.670;6.750;2023-04-06T08:37:38;7.90;99.90
60293;DHT22;52402;52.670;6.750;2023-04-06T08:40:04;8.10;99.90
60293;DHT22;52402;52.670;6.750;2023-04-06T08:42:32;8.20;99.90
60293;DHT22;52402;52.670;6.750;2023-04-06T08:44:59;8.40;99.90
60293;DHT22;52402;52.670;6.750;2023-04-06T08:47:25;8.50;99.90
60293;DHT22;52402;52.670;6.750;2023-04-06T08:49:52;8.70;99.90
60293;DHT22;52402;52.670;6.750;2023-04-06T08:52:19;8.90;99.90
60293;DHT22;52402;52.670;6.750;2023-04-06T08:54:45;9.00;99.90
60293;DHT22;52402;52.670;6.750;2023-04-06T08:57:11;9.20;99.90
60293;DHT22;52402;52.670;6.750;2023-04-06T08:59:37;9.20;99.90
60293;DHT22;52402;52.670;6.750;2023-04-06T09:02:04;9.30;99.90
60293;DHT22;52402;52.670;6.750;2023-04-06T09:04:33;9.40;99.90
60293;DHT22;52402;52.670;6.750;2023-04-06T09:07:00;9.40;99.90
60293;DHT22;52402;52.670;6.750;2023-04-06T09:09:26;9.50;99.90
60293;DHT22;52402;52.670;6.750;2023-04-06T09:11:52;9.60;99.90
60293;DHT22;52402;52.670;6.750;2023-04-06T09:14:36;9.70;99.90
60293;DHT22;52402;52.670;6.750;2023-04-06T09:17:02;9.80;99.90
60293;DHT22;52402;52.670;6.750;2023-04-06T09:19:28;10.00;99.90
60293;DHT22;52402;52.670;6.750;2023-04-06T09:22:04;10.10;99.90
60293;DHT22;52402;52.670;6.750;2023-04-06T09:24:49;10.20;99.90
60293;DHT22;52402;52.670;6.750;2023-04-06T09:27:15;10.30;99.90
60293;DHT22;52402;52.670;6.750;2023-04-06T09:29:42;10.40;99.90
60293;DHT22;52402;52.670;6.750;2023-04-06T09:32:09;10.50;99.90
60293;DHT22;52402;52.670;6.750;2023-04-06T09:34:42;10.50;99.90
60293;DHT22;52402;52.670;6.750;2023-04-06T09:37:18;10.60;99.90
60293;DHT22;52402;52.670;6.750;2023-04-06T09:39:44;10.60;99.90
60293;DHT22;52402;52.670;6.750;2023-04-06T09:42:23;10.70;99.90
60293;DHT22;52402;52.670;6.750;2023-04-06T09:44:49;10.80;99.90
60293;DHT22;52402;52.670;6.750;2023-04-06T09:47:15;10.80;99.90
60293;DHT22;52402;52.670;6.750;2023-04-06T09:49:43;10.80;99.90
60293;DHT22;52402;52.670;6.750;2023-04-06T09:52:11;11.00;99.90
60293;DHT22;52402;52.670;6.750;2023-04-06T09:54:38;11.00;99.90
60293;DHT22;52402;52.670;6.750;2023-04-06T09:57:27;11.10;99.90
60293;DHT22;52402;52.670;6.750;2023-04-06T10:00:04;11.20;99.90
60293;DHT22;52402;52.670;6.750;2023-04-06T10:05:43;11.20;99.90
60293;DHT22;52402;52.670;6.750;2023-04-06T10:08:13;11.30;99.90
60293;DHT22;52402;52.670;6.750;2023-04-06T10:10:39;11.40;99.90
60293;DHT22;52402;52.670;6.750;2023-04-06T10:13:05;11.50;99.90
60293;DHT22;52402;52.670;6.750;2023-04-06T10:15:31;11.50;99.90
60293;DHT22;52402;52.670;6.750;2023-04-06T10:18:00;11.60;99.90
60293;DHT22;52402;52.670;6.750;2023-04-06T10:20:28;11.80;99.90
60293;DHT22;52402;52.670;6.750;2023-04-06T10:23:05;11.90;99.90
60293;DHT22;52402;52.670;6.750;2023-04-06T10:25:34;12.10;99.90
60293;DHT22;52402;52.670;6.750;2023-04-06T10:28:11;12.30;99.90
60293;DHT22;52402;52.670;6.750;2023-04-06T10:30:42;12.50;99.90
60293;DHT22;52402;52.670;6.750;2023-04-06T10:33:15;12.60;99.90
60293;DHT22;52402;52.670;6.750;2023-04-06T10:35:41;12.60;99.80
60293;DHT22;52402;52.670;6.750;2023-04-06T10:38:06;12.70;99.70
60293;DHT22;52402;52.670;6.750;2023-04-06T10:40:36;12.70;98.30
60293;DHT22;52402;52.670;6.750;2023-04-06T10:43:12;12.70;97.50
60293;DHT22;52402;52.670;6.750;2023-04-06T10:45:38;12.80;97.20
60293;DHT22;52402;52.670;6.750;2023-04-06T10:50:42;12.80;96.20
60293;DHT22;52402;52.670;6.750;2023-04-06T10:53:08;12.90;96.60
60293;DHT22;52402;52.670;6.750;2023-04-06T10:55:34;13.00;98.00
60293;DHT22;52402;52.670;6.750;2023-04-06T10:58:06;13.00;96.60
60293;DHT22;52402;52.670;6.750;2023-04-06T11:00:32;13.10;95.80
60293;DHT22;52402;52.670;6.750;2023-04-06T11:03:01;13.00;94.90
60293;DHT22;52402;52.670;6.750;2023-04-06T11:05:27;13.20;95.60
60293;DHT22;52402;52.670;6.750;2023-04-06T11:07:53;13.20;95.00
60293;DHT22;52402;52.670;6.750;2023-04-06T11:10:22;13.30;94.50
60293;DHT22;52402;52.670;6.750;2023-04-06T11:12:55;13.30;93.70
60293;DHT22;52402;52.670;6.750;2023-04-06T11:15:20;13.30;94.40
60293;DHT22;52402;52.670;6.750;2023-04-06T11:17:46;13.30;93.90
60293;DHT22;52402;52.670;6.750;2023-04-06T11:20:12;13.20;93.60
60293;DHT22;52402;52.670;6.750;2023-04-06T11:22:53;13.20;93.90
60293;DHT22;52402;52.670;6.750;2023-04-06T11:25:19;13.30;93.50
60293;DHT22;52402;52.670;6.750;2023-04-06T11:27:46;13.40;94.20
60293;DHT22;52402;52.670;6.750;2023-04-06T11:30:13;13.40;93.90
60293;DHT22;52402;52.670;6.750;2023-04-06T11:32:43;13.50;93.30
60293;DHT22;52402;52.670;6.750;2023-04-06T11:35:23;13.50;92.80
60293;DHT22;52402;52.670;6.750;2023-04-06T11:37:51;13.50;91.60
60293;DHT22;52402;52.670;6.750;2023-04-06T11:40:21;13.50;91.80
60293;DHT22;52402;52.670;6.750;2023-04-06T11:42:57;13.40;91.00
60293;DHT22;52402;52.670;6.750;2023-04-06T11:45:22;13.40;91.10
60293;DHT22;52402;52.670;6.750;2023-04-06T11:47:59;13.40;91.20
60293;DHT22;52402;52.670;6.750;2023-04-06T11:50:25;13.40;91.90
60293;DHT22;52402;52.670;6.750;2023-04-06T11:53:00;13.40;91.40
60293;DHT22;52402;52.670;6.750;2023-04-06T11:55:26;13.40;91.30
60293;DHT22;52402;52.670;6.750;2023-04-06T11:57:52;13.50;91.50
60293;DHT22;52402;52.670;6.750;2023-04-06T12:00:18;13.50;90.80
60293;DHT22;52402;52.670;6.750;2023-04-06T12:02:46;13.60;91.30
60293;DHT22;52402;52.670;6.750;2023-04-06T12:05:11;13.60;91.60
60293;DHT22;52402;52.670;6.750;2023-04-06T12:07:37;13.70;91.60
60293;DHT22;52402;52.670;6.750;2023-04-06T12:10:03;13.70;91.30
60293;DHT22;52402;52.670;6.750;2023-04-06T12:12:30;13.70;91.40
60293;DHT22;52402;52.670;6.750;2023-04-06T12:14:56;13.90;90.70
60293;DHT22;52402;52.670;6.750;2023-04-06T12:17:22;14.00;91.10
60293;DHT22;52402;52.670;6.750;2023-04-06T12:19:48;14.20;90.10
60293;DHT22;52402;52.670;6.750;2023-04-06T12:22:14;14.40;90.80
60293;DHT22;52402;52.670;6.750;2023-04-06T12:24:40;14.50;90.40
60293;DHT22;52402;52.670;6.750;2023-04-06T12:27:06;14.70;91.10
60293;DHT22;52402;52.670;6.750;2023-04-06T12:29:32;14.60;89.40
60293;DHT22;52402;52.670;6.750;2023-04-06T12:31:57;14.60;89.90
60293;DHT22;52402;52.670;6.750;2023-04-06T12:34:23;14.50;90.20
60293;DHT22;52402;52.670;6.750;2023-04-06T12:36:49;14.40;89.80
60293;DHT22;52402;52.670;6.750;2023-04-06T12:39:15;14.20;89.60
60293;DHT22;52402;52.670;6.750;2023-04-06T12:41:42;14.20;89.80
60293;DHT22;52402;52.670;6.750;2023-04-06T12:44:07;14.10;88.50
60293;DHT22;52402;52.670;6.750;2023-04-06T12:46:33;14.10;89.10
60293;DHT22;52402;52.670;6.750;2023-04-06T12:48:59;14.10;89.60
60293;DHT22;52402;52.670;6.750;2023-04-06T12:51:28;14.20;90.30
60293;DHT22;52402;52.670;6.750;2023-04-06T12:53:54;14.30;90.30
60293;DHT22;52402;52.670;6.750;2023-04-06T12:56:20;14.40;90.30
60293;DHT22;52402;52.670;6.750;2023-04-06T12:58:50;14.50;90.10
60293;DHT22;52402;52.670;6.750;2023-04-06T13:01:16;14.50;90.30
60293;DHT22;52402;52.670;6.750;2023-04-06T13:03:43;14.50;90.50
60293;DHT22;52402;52.670;6.750;2023-04-06T13:06:09;14.40;89.20
60293;DHT22;52402;52.670;6.750;2023-04-06T13:08:35;14.40;90.00
60293;DHT22;52402;52.670;6.750;2023-04-06T13:11:04;14.40;89.50
60293;DHT22;52402;52.670;6.750;2023-04-06T13:13:30;14.30;90.40
60293;DHT22;52402;52.670;6.750;2023-04-06T13:16:01;14.20;90.20
60293;DHT22;52402;52.670;6.750;2023-04-06T13:18:28;14.20;89.80
60293;DHT22;52402;52.670;6.750;2023-04-06T13:20:55;14.20;90.70
60293;DHT22;52402;52.670;6.750;2023-04-06T13:23:22;14.10;90.50
60293;DHT22;52402;52.670;6.750;2023-04-06T13:25:47;14.00;91.20
60293;DHT22;52402;52.670;6.750;2023-04-06T13:28:13;13.90;91.00
60293;DHT22;52402;52.670;6.750;2023-04-06T13:30:39;13.90;90.60
60293;DHT22;52402;52.670;6.750;2023-04-06T13:33:05;13.90;90.90
60293;DHT22;52402;52.670;6.750;2023-04-06T13:35:32;13.80;91.00
60293;DHT22;52402;52.670;6.750;2023-04-06T13:37:58;13.80;91.10
60293;DHT22;52402;52.670;6.750;2023-04-06T13:40:24;13.70;91.60
60293;DHT22;52402;52.670;6.750;2023-04-06T13:42:50;13.70;91.60
60293;DHT22;52402;52.670;6.750;2023-04-06T13:45:15;13.60;92.00
60293;DHT22;52402;52.670;6.750;2023-04-06T13:47:41;13.60;92.30
60293;DHT22;52402;52.670;6.750;2023-04-06T13:50:07;13.60;93.10
60293;DHT22;52402;52.670;6.750;2023-04-06T13:52:33;13.50;92.50
60293;DHT22;52402;52.670;6.750;2023-04-06T13:54:58;13.50;93.30
60293;DHT22;52402;52.670;6.750;2023-04-06T13:57:24;13.40;93.10
60293;DHT22;52402;52.670;6.750;2023-04-06T13:59:49;13.30;93.00
60293;DHT22;52402;52.670;6.750;2023-04-06T14:02:16;13.30;93.20
60293;DHT22;52402;52.670;6.750;2023-04-06T14:04:41;13.20;93.50
60293;DHT22;52402;52.670;6.750;2023-04-06T14:07:07;13.10;93.20
60293;DHT22;52402;52.670;6.750;2023-04-06T14:09:33;13.00;93.20
60293;DHT22;52402;52.670;6.750;2023-04-06T14:11:59;13.00;93.50
60293;DHT22;52402;52.670;6.750;2023-04-06T14:14:25;12.90;93.50
60293;DHT22;52402;52.670;6.750;2023-04-06T14:16:51;12.80;93.90
60293;DHT22;52402;52.670;6.750;2023-04-06T14:19:17;12.70;94.40
60293;DHT22;52402;52.670;6.750;2023-04-06T14:21:44;12.60;94.40
60293;DHT22;52402;52.670;6.750;2023-04-06T14:24:10;12.50;93.80
60293;DHT22;52402;52.670;6.750;2023-04-06T14:26:36;12.40;94.00
60293;DHT22;52402;52.670;6.750;2023-04-06T14:29:03;12.40;95.00
60293;DHT22;52402;52.670;6.750;2023-04-06T14:31:32;12.30;94.10
60293;DHT22;52402;52.670;6.750;2023-04-06T14:34:00;12.10;93.80
60293;DHT22;52402;52.670;6.750;2023-04-06T14:36:26;12.00;93.90
60293;DHT22;52402;52.670;6.750;2023-04-06T14:38:56;12.00;94.40
60293;DHT22;52402;52.670;6.750;2023-04-06T14:41:23;12.00;94.30
60293;DHT22;52402;52.670;6.750;2023-04-06T14:43:49;12.10;94.30
60293;DHT22;52402;52.670;6.750;2023-04-06T14:46:16;12.00;94.60
60293;DHT22;52402;52.670;6.750;2023-04-06T14:48:42;12.10;95.20
60293;DHT22;52402;52.670;6.750;2023-04-06T14:51:07;12.10;95.30
60293;DHT22;52402;52.670;6.750;2023-04-06T14:53:33;12.10;95.70
60293;DHT22;52402;52.670;6.750;2023-04-06T14:55:58;12.00;95.80
60293;DHT22;52402;52.670;6.750;2023-04-06T14:58:26;11.90;96.40
60293;DHT22;52402;52.670;6.750;2023-04-06T15:00:59;11.80;96.90
60293;DHT22;52402;52.670;6.750;2023-04-06T15:03:26;11.80;97.40
60293;DHT22;52402;52.670;6.750;2023-04-06T15:05:52;11.80;97.70
60293;DHT22;52402;52.670;6.750;2023-04-06T15:08:18;11.70;98.70
60293;DHT22;52402;52.670;6.750;2023-04-06T15:10:47;11.70;98.80
60293;DHT22;52402;52.670;6.750;2023-04-06T15:13:12;11.60;99.20
60293;DHT22;52402;52.670;6.750;2023-04-06T15:15:38;11.50;99.60
60293;DHT22;52402;52.670;6.750;2023-04-06T15:18:04;11.40;99.90
60293;DHT22;52402;52.670;6.750;2023-04-06T15:20:30;11.40;99.90
60293;DHT22;52402;52.670;6.750;2023-04-06T15:22:56;11.30;99.90
60293;DHT22;52402;52.670;6.750;2023-04-06T15:25:21;11.30;99.90
60293;DHT22;52402;52.670;6.750;2023-04-06T15:27:47;11.30;99.90
60293;DHT22;52402;52.670;6.750;2023-04-06T15:30:13;11.30;99.90
60293;DHT22;52402;52.670;6.750;2023-04-06T15:32:39;11.20;99.90
60293;DHT22;52402;52.670;6.750;2023-04-06T15:35:11;11.10;99.90
60293;DHT22;52402;52.670;6.750;2023-04-06T15:37:38;11.00;99.90
60293;DHT22;52402;52.670;6.750;2023-04-06T15:40:04;10.80;99.90
60293;DHT22;52402;52.670;6.750;2023-04-06T15:42:29;10.70;99.90